sensor_id;sensor_type;location;lat;lon;timestamp;pressure;altitude;pressure_sealevel;temperature
73685;BMP280;61985;51.070;14.064;2022-08-18T00:02:13;98277.81;;;19.49
73685;BMP280;61985;51.070;14.064;2022-08-18T00:04:39;98282.53;;;19.42
73685;BMP280;61985;51.070;14.064;2022-08-18T00:07:22;98279.28;;;19.33
73685;BMP280;61985;51.070;14.064;2022-08-18T00:09:48;98279.28;;;19.27
73685;BMP280;61985;51.070;14.064;2022-08-18T00:12:22;98273.34;;;19.34
73685;BMP280;61985;51.070;14.064;2022-08-18T00:14:48;98265.91;;;19.29
73685;BMP280;61985;51.070;14.064;2022-08-18T00:17:14;98270.38;;;19.27
73685;BMP280;61985;51.070;14.064;2022-08-18T00:19:40;98266.91;;;19.26
73685;BMP280;61985;51.070;14.064;2022-08-18T00:22:06;98265.91;;;19.29
73685;BMP280;61985;51.070;14.064;2022-08-18T00:24:31;98270.84;;;19.25
73685;BMP280;61985;51.070;14.064;2022-08-18T00:26:57;98266.41;;;19.22
73685;BMP280;61985;51.070;14.064;2022-08-18T00:29:23;98261.41;;;19.32
73685;BMP280;61985;51.070;14.064;2022-08-18T00:31:49;98271.84;;;19.39
73685;BMP280;61985;51.070;14.064;2022-08-18T00:34:15;98264.41;;;19.39
73685;BMP280;61985;51.070;14.064;2022-08-18T00:36:40;98272.84;;;19.36
73685;BMP280;61985;51.070;14.064;2022-08-18T00:39:06;98265.91;;;19.35
73685;BMP280;61985;51.070;14.064;2022-08-18T00:41:32;98260.44;;;19.29
73685;BMP280;61985;51.070;14.064;2022-08-18T00:43:57;98267.09;;;19.22
73685;BMP280;61985;51.070;14.064;2022-08-18T00:46:28;98263.41;;;19.20
73685;BMP280;61985;51.070;14.064;2022-08-18T00:48:55;98267.88;;;19.17
73685;BMP280;61985;51.070;14.064;2022-08-18T00:51:48;98272.59;;;19.17
73685;BMP280;61985;51.070;14.064;2022-08-18T00:54:19;98271.09;;;19.10
73685;BMP280;61985;51.070;14.064;2022-08-18T00:56:48;98270.09;;;19.19
73685;BMP280;61985;51.070;14.064;2022-08-18T01:02:13;98269.59;;;18.98
73685;BMP280;61985;51.070;14.064;2022-08-18T01:04:54;98266.63;;;19.13
73685;BMP280;61985;51.070;14.064;2022-08-18T01:07:43;98267.88;;;19.12
73685;BMP280;61985;51.070;14.064;2022-08-18T01:10:10;98275.81;;;19.10
73685;BMP280;61985;51.070;14.064;2022-08-18T01:12:40;98284.47;;;18.91
73685;BMP280;61985;51.070;14.064;2022-08-18T01:15:06;98276.25;;;18.86
73685;BMP280;61985;51.070;14.064;2022-08-18T01:17:32;98265.34;;;18.91
73685;BMP280;61985;51.070;14.064;2022-08-18T01:20:21;98274.28;;;18.92
73685;BMP280;61985;51.070;14.064;2022-08-18T01:23:18;98262.13;;;18.93
73685;BMP280;61985;51.070;14.064;2022-08-18T01:25:45;98273.31;;;19.00
73685;BMP280;61985;51.070;14.064;2022-08-18T01:28:43;98272.53;;;18.94
73685;BMP280;61985;51.070;14.064;2022-08-18T01:31:11;98263.34;;;18.86
73685;BMP280;61985;51.070;14.064;2022-08-18T01:33:42;98258.41;;;18.85
73685;BMP280;61985;51.070;14.064;2022-08-18T01:36:17;98251.94;;;18.82
73685;BMP280;61985;51.070;14.064;2022-08-18T01:38:50;98263.34;;;18.80
73685;BMP280;61985;51.070;14.064;2022-08-18T01:41:17;98274.25;;;18.75
73685;BMP280;61985;51.070;14.064;2022-08-18T01:43:43;98263.28;;;18.64
73685;BMP280;61985;51.070;14.064;2022-08-18T01:46:10;98265.69;;;18.39
73685;BMP280;61985;51.070;14.064;2022-08-18T01:48:37;98263.47;;;18.43
73685;BMP280;61985;51.070;14.064;2022-08-18T01:51:07;98265.72;;;18.45
73685;BMP280;61985;51.070;14.064;2022-08-18T01:53:33;98265.72;;;18.50
73685;BMP280;61985;51.070;14.064;2022-08-18T01:55:58;98264.25;;;18.49
73685;BMP280;61985;51.070;14.064;2022-08-18T01:58:24;98268.72;;;18.52
73685;BMP280;61985;51.070;14.064;2022-08-18T02:00:57;98269.72;;;18.55
73685;BMP280;61985;51.070;14.064;2022-08-18T02:03:28;98263.69;;;18.34
73685;BMP280;61985;51.070;14.064;2022-08-18T02:06:00;98265.72;;;18.50
73685;BMP280;61985;51.070;14.064;2022-08-18T02:08:27;98265.03;;;18.55
73685;BMP280;61985;51.070;14.064;2022-08-18T02:10:52;98269.75;;;18.60
73685;BMP280;61985;51.070;14.064;2022-08-18T02:13:18;98262.00;;;18.53
73685;BMP280;61985;51.070;14.064;2022-08-18T02:15:44;98263.25;;;18.52
73685;BMP280;61985;51.070;14.064;2022-08-18T02:18:15;98261.25;;;18.47
73685;BMP280;61985;51.070;14.064;2022-08-18T02:20:40;98260.22;;;18.39
73685;BMP280;61985;51.070;14.064;2022-08-18T02:23:05;98264.72;;;18.48
73685;BMP280;61985;51.070;14.064;2022-08-18T02:25:31;98268.47;;;18.50
73685;BMP280;61985;51.070;14.064;2022-08-18T02:27:56;98275.66;;;18.53
73685;BMP280;61985;51.070;14.064;2022-08-18T02:30:22;98271.19;;;18.50
73685;BMP280;61985;51.070;14.064;2022-08-18T02:32:47;98271.66;;;18.43
73685;BMP280;61985;51.070;14.064;2022-08-18T02:35:13;98269.91;;;18.40
73685;BMP280;61985;51.070;14.064;2022-08-18T02:37:40;98266.75;;;18.58
73685;BMP280;61985;51.070;14.064;2022-08-18T02:40:06;98252.59;;;18.54
73685;BMP280;61985;51.070;14.064;2022-08-18T02:42:31;98250.09;;;18.45
73685;BMP280;61985;51.070;14.064;2022-08-18T02:44:57;98252.31;;;18.41
73685;BMP280;61985;51.070;14.064;2022-08-18T02:47:22;98245.16;;;18.49
73685;BMP280;61985;51.070;14.064;2022-08-18T02:49:48;98243.13;;;18.44
73685;BMP280;61985;51.070;14.064;2022-08-18T02:52:14;98248.31;;;18.31
73685;BMP280;61985;51.070;14.064;2022-08-18T02:54:40;98240.59;;;18.18
73685;BMP280;61985;51.070;14.064;2022-08-18T02:57:08;98255.47;;;18.23
73685;BMP280;61985;51.070;14.064;2022-08-18T02:59:35;98244.38;;;18.32
73685;BMP280;61985;51.070;14.064;2022-08-18T03:02:01;98237.44;;;18.42
73685;BMP280;61985;51.070;14.064;2022-08-18T03:04:28;98236.94;;;18.38
73685;BMP280;61985;51.070;14.064;2022-08-18T03:06:55;98235.16;;;18.29
73685;BMP280;61985;51.070;14.064;2022-08-18T03:09:22;98230.97;;;18.34
73685;BMP280;61985;51.070;14.064;2022-08-18T03:11:57;98218.09;;;18.40
73685;BMP280;61985;51.070;14.064;2022-08-18T03:14:23;98219.56;;;18.41
73685;BMP280;61985;51.070;14.064;2022-08-18T03:16:50;98221.06;;;18.42
73685;BMP280;61985;51.070;14.064;2022-08-18T03:19:15;98221.81;;;18.37
73685;BMP280;61985;51.070;14.064;2022-08-18T03:21:43;98215.59;;;18.31
73685;BMP280;61985;51.070;14.064;2022-08-18T03:24:09;98218.53;;;18.33
73685;BMP280;61985;51.070;14.064;2022-08-18T03:26:35;98220.56;;;18.32
73685;BMP280;61985;51.070;14.064;2022-08-18T03:29:03;98217.31;;;18.34
73685;BMP280;61985;51.070;14.064;2022-08-18T03:31:29;98227.00;;;18.35
73685;BMP280;61985;51.070;14.064;2022-08-18T03:33:57;98241.13;;;18.33
73685;BMP280;61985;51.070;14.064;2022-08-18T03:36:25;98230.66;;;18.21
73685;BMP280;61985;51.070;14.064;2022-08-18T03:38:52;98231.47;;;18.32
73685;BMP280;61985;51.070;14.064;2022-08-18T03:41:21;98234.19;;;18.38
73685;BMP280;61985;51.070;14.064;2022-08-18T03:43:47;98236.94;;;18.44
73685;BMP280;61985;51.070;14.064;2022-08-18T03:46:14;98236.97;;;18.49
73685;BMP280;61985;51.070;14.064;2022-08-18T03:48:41;98221.59;;;18.46
73685;BMP280;61985;51.070;14.064;2022-08-18T03:51:29;98224.81;;;18.50
73685;BMP280;61985;51.070;14.064;2022-08-18T03:53:57;98232.25;;;18.50
73685;BMP280;61985;51.070;14.064;2022-08-18T03:56:26;98232.25;;;18.50
73685;BMP280;61985;51.070;14.064;2022-08-18T03:58:55;98225.84;;;18.58
73685;BMP280;61985;51.070;14.064;2022-08-18T04:01:23;98221.13;;;18.59
73685;BMP280;61985;51.070;14.064;2022-08-18T04:03:53;98224.88;;;18.62
73685;BMP280;61985;51.070;14.064;2022-08-18T04:06:23;98236.75;;;18.64
73685;BMP280;61985;51.070;14.064;2022-08-18T04:08:54;98233.25;;;18.58
73685;BMP280;61985;51.070;14.064;2022-08-18T04:11:21;98226.09;;;18.60
73685;BMP280;61985;51.070;14.064;2022-08-18T04:13:46;98229.56;;;18.67
73685;BMP280;61985;51.070;14.064;2022-08-18T04:16:12;98245.94;;;18.67
73685;BMP280;61985;51.070;14.064;2022-08-18T04:18:38;98238.50;;;18.62
73685;BMP280;61985;51.070;14.064;2022-08-18T04:21:05;98243.94;;;18.56
73685;BMP280;61985;51.070;14.064;2022-08-18T04:23:33;98242.91;;;18.53
73685;BMP280;61985;51.070;14.064;2022-08-18T04:26:00;98240.19;;;18.48
73685;BMP280;61985;51.070;14.064;2022-08-18T04:28:26;98241.69;;;18.54
73685;BMP280;61985;51.070;14.064;2022-08-18T04:30:52;98240.47;;;18.55
73685;BMP280;61985;51.070;14.064;2022-08-18T04:33:18;98236.72;;;18.53
73685;BMP280;61985;51.070;14.064;2022-08-18T04:35:43;98242.16;;;18.47
73685;BMP280;61985;51.070;14.064;2022-08-18T04:38:10;98248.88;;;18.46
73685;BMP280;61985;51.070;14.064;2022-08-18T04:40:35;98244.38;;;18.43
73685;BMP280;61985;51.070;14.064;2022-08-18T04:43:01;98244.84;;;18.36
73685;BMP280;61985;51.070;14.064;2022-08-18T04:45:27;98242.84;;;18.31
73685;BMP280;61985;51.070;14.064;2022-08-18T04:47:53;98241.41;;;18.41
73685;BMP280;61985;51.070;14.064;2022-08-18T04:50:19;98234.97;;;18.50
73685;BMP280;61985;51.070;14.064;2022-08-18T04:52:44;98244.97;;;18.70
73685;BMP280;61985;51.070;14.064;2022-08-18T04:55:28;98237.28;;;18.74
73685;BMP280;61985;51.070;14.064;2022-08-18T04:57:55;98251.47;;;18.89
73685;BMP280;61985;51.070;14.064;2022-08-18T05:00:20;98256.69;;;18.93
73685;BMP280;61985;51.070;14.064;2022-08-18T05:02:46;98259.41;;;19.04
73685;BMP280;61985;51.070;14.064;2022-08-18T05:05:11;98264.16;;;19.20
73685;BMP280;61985;51.070;14.064;2022-08-18T05:07:42;98271.34;;;19.23
73685;BMP280;61985;51.070;14.064;2022-08-18T05:10:08;98265.63;;;19.33
73685;BMP280;61985;51.070;14.064;2022-08-18T05:12:35;98267.88;;;19.51
73685;BMP280;61985;51.070;14.064;2022-08-18T05:15:00;98275.81;;;19.66
73685;BMP280;61985;51.070;14.064;2022-08-18T05:17:25;98266.81;;;19.82
73685;BMP280;61985;51.070;14.064;2022-08-18T05:19:52;98265.06;;;19.96
73685;BMP280;61985;51.070;14.064;2022-08-18T05:22:18;98267.72;;;20.13
73685;BMP280;61985;51.070;14.064;2022-08-18T05:24:45;98267.19;;;20.32
73685;BMP280;61985;51.070;14.064;2022-08-18T05:27:11;98272.84;;;20.45
73685;BMP280;61985;51.070;14.064;2022-08-18T05:29:37;98281.00;;;20.56
73685;BMP280;61985;51.070;14.064;2022-08-18T05:32:03;98273.69;;;20.70
73685;BMP280;61985;51.070;14.064;2022-08-18T05:34:32;98276.63;;;20.83
73685;BMP280;61985;51.070;14.064;2022-08-18T05:37:26;98276.97;;;21.04
73685;BMP280;61985;51.070;14.064;2022-08-18T05:40:00;98273.53;;;21.28
73685;BMP280;61985;51.070;14.064;2022-08-18T05:42:26;98271.56;;;21.53
73685;BMP280;61985;51.070;14.064;2022-08-18T05:44:53;98268.59;;;21.76
73685;BMP280;61985;51.070;14.064;2022-08-18T05:47:25;98269.09;;;21.99
73685;BMP280;61985;51.070;14.064;2022-08-18T05:49:54;98272.66;;;22.13
73685;BMP280;61985;51.070;14.064;2022-08-18T05:52:36;98258.81;;;22.24
73685;BMP280;61985;51.070;14.064;2022-08-18T05:55:14;98267.91;;;22.32
73685;BMP280;61985;51.070;14.064;2022-08-18T05:58:17;98268.09;;;22.40
73685;BMP280;61985;51.070;14.064;2022-08-18T06:00:54;98267.19;;;22.51
73685;BMP280;61985;51.070;14.064;2022-08-18T06:03:26;98272.97;;;22.66
73685;BMP280;61985;51.070;14.064;2022-08-18T06:06:00;98266.91;;;22.86
73685;BMP280;61985;51.070;14.064;2022-08-18T06:08:36;98263.16;;;23.03
73685;BMP280;61985;51.070;14.064;2022-08-18T06:11:03;98253.91;;;23.19
73685;BMP280;61985;51.070;14.064;2022-08-18T06:13:29;98252.88;;;23.36
73685;BMP280;61985;51.070;14.064;2022-08-18T06:18:39;98250.66;;;23.87
73685;BMP280;61985;51.070;14.064;2022-08-18T06:26:54;98261.66;;;24.56
73685;BMP280;61985;51.070;14.064;2022-08-18T06:29:58;98257.44;;;24.76
73685;BMP280;61985;51.070;14.064;2022-08-18T06:35:23;98262.81;;;25.02
73685;BMP280;61985;51.070;14.064;2022-08-18T06:40:41;98252.88;;;25.28
73685;BMP280;61985;51.070;14.064;2022-08-18T06:43:11;98250.72;;;25.34
73685;BMP280;61985;51.070;14.064;2022-08-18T06:45:40;98255.72;;;25.43
73685;BMP280;61985;51.070;14.064;2022-08-18T06:50:52;98258.53;;;25.87
73685;BMP280;61985;51.070;14.064;2022-08-18T06:53:20;98253.81;;;26.11
73685;BMP280;61985;51.070;14.064;2022-08-18T06:55:47;98253.13;;;26.26
73685;BMP280;61985;51.070;14.064;2022-08-18T07:03:19;98252.06;;;26.82
73685;BMP280;61985;51.070;14.064;2022-08-18T07:06:22;98256.66;;;26.87
73685;BMP280;61985;51.070;14.064;2022-08-18T10:38:22;98212.31;;;30.44
73685;BMP280;61985;51.070;14.064;2022-08-18T10:41:02;98214.19;;;30.32
73685;BMP280;61985;51.070;14.064;2022-08-18T10:43:37;98218.88;;;30.29
73685;BMP280;61985;51.070;14.064;2022-08-18T10:46:04;98212.28;;;30.25
73685;BMP280;61985;51.070;14.064;2022-08-18T10:48:38;98217.53;;;30.21
73685;BMP280;61985;51.070;14.064;2022-08-18T10:53:58;98216.97;;;30.32
73685;BMP280;61985;51.070;14.064;2022-08-18T10:56:37;98214.38;;;30.44
73685;BMP280;61985;51.070;14.064;2022-08-18T11:02:12;98195.25;;;30.77
73685;BMP280;61985;51.070;14.064;2022-08-18T11:09:38;98191.13;;;30.78
73685;BMP280;61985;51.070;14.064;2022-08-18T11:12:04;98200.38;;;30.71
73685;BMP280;61985;51.070;14.064;2022-08-18T11:14:57;98195.50;;;30.42
73685;BMP280;61985;51.070;14.064;2022-08-18T11:18:26;98204.69;;;30.35
73685;BMP280;61985;51.070;14.064;2022-08-18T11:20:32;98204.09;;;30.27
73685;BMP280;61985;51.070;14.064;2022-08-18T11:23:00;98200.25;;;30.12
73685;BMP280;61985;51.070;14.064;2022-08-18T11:25:28;98198.91;;;30.04
73685;BMP280;61985;51.070;14.064;2022-08-18T11:27:53;98205.03;;;30.02
73685;BMP280;61985;51.070;14.064;2022-08-18T11:30:22;98207.19;;;29.94
73685;BMP280;61985;51.070;14.064;2022-08-18T11:32:49;98208.22;;;29.89
73685;BMP280;61985;51.070;14.064;2022-08-18T11:35:18;98209.03;;;29.82
73685;BMP280;61985;51.070;14.064;2022-08-18T11:37:47;98215.28;;;29.73
73685;BMP280;61985;51.070;14.064;2022-08-18T11:43:04;98220.34;;;29.66
73685;BMP280;61985;51.070;14.064;2022-08-18T11:56:05;98224.16;;;29.44
73685;BMP280;61985;51.070;14.064;2022-08-18T11:58:41;98227.34;;;29.40
73685;BMP280;61985;51.070;14.064;2022-08-18T12:03:57;98230.53;;;29.37
73685;BMP280;61985;51.070;14.064;2022-08-18T12:06:27;98227.44;;;29.33
73685;BMP280;61985;51.070;14.064;2022-08-18T12:09:02;98239.13;;;29.31
73685;BMP280;61985;51.070;14.064;2022-08-18T12:11:36;98227.88;;;29.29
73685;BMP280;61985;51.070;14.064;2022-08-18T12:14:08;98222.31;;;29.29
73685;BMP280;61985;51.070;14.064;2022-08-18T12:16:39;98216.34;;;29.33
73685;BMP280;61985;51.070;14.064;2022-08-18T12:19:08;98219.50;;;29.47
73685;BMP280;61985;51.070;14.064;2022-08-18T12:21:42;98218.28;;;29.57
73685;BMP280;61985;51.070;14.064;2022-08-18T12:24:15;98230.63;;;29.74
73685;BMP280;61985;51.070;14.064;2022-08-18T12:26:41;98232.41;;;29.79
73685;BMP280;61985;51.070;14.064;2022-08-18T12:29:06;98227.56;;;29.79
73685;BMP280;61985;51.070;14.064;2022-08-18T12:31:32;98236.78;;;29.72
73685;BMP280;61985;51.070;14.064;2022-08-18T12:33:57;98237.97;;;29.79
73685;BMP280;61985;51.070;14.064;2022-08-18T12:36:23;98234.47;;;29.78
73685;BMP280;61985;51.070;14.064;2022-08-18T12:38:48;98241.13;;;29.93
73685;BMP280;61985;51.070;14.064;2022-08-18T12:41:14;98232.81;;;30.02
73685;BMP280;61985;51.070;14.064;2022-08-18T12:43:39;98222.34;;;30.20
73685;BMP280;61985;51.070;14.064;2022-08-18T12:46:05;98213.81;;;30.45
73685;BMP280;61985;51.070;14.064;2022-08-18T12:48:30;98215.00;;;30.62
73685;BMP280;61985;51.070;14.064;2022-08-18T12:50:56;98214.97;;;30.42
73685;BMP280;61985;51.070;14.064;2022-08-18T12:53:23;98216.31;;;30.51
73685;BMP280;61985;51.070;14.064;2022-08-18T12:55:48;98208.81;;;30.53
73685;BMP280;61985;51.070;14.064;2022-08-18T12:58:14;98215.97;;;30.37
73685;BMP280;61985;51.070;14.064;2022-08-18T13:00:39;98209.09;;;30.38
73685;BMP280;61985;51.070;14.064;2022-08-18T13:03:05;98208.81;;;30.44
73685;BMP280;61985;51.070;14.064;2022-08-18T13:05:32;98208.91;;;30.26
73685;BMP280;61985;51.070;14.064;2022-08-18T13:08:00;98218.09;;;30.09
73685;BMP280;61985;51.070;14.064;2022-08-18T13:10:26;98220.72;;;30.07
73685;BMP280;61985;51.070;14.064;2022-08-18T13:12:52;98205.91;;;29.95
73685;BMP280;61985;51.070;14.064;2022-08-18T13:15:17;98203.22;;;29.87
73685;BMP280;61985;51.070;14.064;2022-08-18T13:17:43;98201.38;;;30.00
73685;BMP280;61985;51.070;14.064;2022-08-18T13:20:14;98193.34;;;30.04
73685;BMP280;61985;51.070;14.064;2022-08-18T13:22:40;98187.66;;;30.11
73685;BMP280;61985;51.070;14.064;2022-08-18T13:25:07;98182.31;;;30.43
73685;BMP280;61985;51.070;14.064;2022-08-18T13:27:34;98169.06;;;31.50
73685;BMP280;61985;51.070;14.064;2022-08-18T13:30:15;98159.56;;;32.06
73685;BMP280;61985;51.070;14.064;2022-08-18T13:32:41;98146.56;;;32.63
73685;BMP280;61985;51.070;14.064;2022-08-18T13:35:08;98155.63;;;32.96
73685;BMP280;61985;51.070;14.064;2022-08-18T13:40:11;98138.00;;;32.70
73685;BMP280;61985;51.070;14.064;2022-08-18T13:42:42;98148.56;;;32.50
73685;BMP280;61985;51.070;14.064;2022-08-18T13:45:09;98141.41;;;32.26
73685;BMP280;61985;51.070;14.064;2022-08-18T13:47:36;98148.78;;;32.43
73685;BMP280;61985;51.070;14.064;2022-08-18T14:21:52;98168.78;;;31.55
73685;BMP280;61985;51.070;14.064;2022-08-18T14:24:37;98168.56;;;31.32
73685;BMP280;61985;51.070;14.064;2022-08-18T14:27:36;98169.59;;;31.68
73685;BMP280;61985;51.070;14.064;2022-08-18T14:30:08;98159.59;;;31.74
73685;BMP280;61985;51.070;14.064;2022-08-18T14:32:34;98159.63;;;31.96
73685;BMP280;61985;51.070;14.064;2022-08-18T14:35:02;98154.78;;;31.96
73685;BMP280;61985;51.070;14.064;2022-08-18T14:37:29;98154.94;;;31.98
73685;BMP280;61985;51.070;14.064;2022-08-18T14:39:54;98152.31;;;32.22
73685;BMP280;61985;51.070;14.064;2022-08-18T14:42:20;98152.66;;;32.49
73685;BMP280;61985;51.070;14.064;2022-08-18T14:44:47;98146.84;;;32.24
73685;BMP280;61985;51.070;14.064;2022-08-18T14:47:13;98137.50;;;32.41
73685;BMP280;61985;51.070;14.064;2022-08-18T14:49:38;98136.34;;;32.34
73685;BMP280;61985;51.070;14.064;2022-08-18T14:52:04;98144.59;;;32.54
73685;BMP280;61985;51.070;14.064;2022-08-18T14:54:31;98138.06;;;32.39
73685;BMP280;61985;51.070;14.064;2022-08-18T14:59:31;98160.13;;;32.68
73685;BMP280;61985;51.070;14.064;2022-08-18T15:01:58;98149.19;;;32.61
73685;BMP280;61985;51.070;14.064;2022-08-18T15:04:23;98143.19;;;32.76
73685;BMP280;61985;51.070;14.064;2022-08-18T15:06:49;98136.50;;;32.69
73685;BMP280;61985;51.070;14.064;2022-08-18T15:09:15;98140.97;;;32.63
73685;BMP280;61985;51.070;14.064;2022-08-18T15:11:40;98140.75;;;32.37
73685;BMP280;61985;51.070;14.064;2022-08-18T15:14:06;98143.03;;;31.98
73685;BMP280;61985;51.070;14.064;2022-08-18T15:16:31;98144.78;;;31.72
73685;BMP280;61985;51.070;14.064;2022-08-18T15:18:59;98149.16;;;31.44
73685;BMP280;61985;51.070;14.064;2022-08-18T15:21:26;98144.59;;;31.48
73685;BMP280;61985;51.070;14.064;2022-08-18T15:24:10;98138.47;;;31.40
73685;BMP280;61985;51.070;14.064;2022-08-18T15:26:55;98136.59;;;31.74
73685;BMP280;61985;51.070;14.064;2022-08-18T15:29:21;98124.91;;;31.97
73685;BMP280;61985;51.070;14.064;2022-08-18T15:31:47;98126.53;;;32.12
73685;BMP280;61985;51.070;14.064;2022-08-18T15:34:14;98128.09;;;32.58
73685;BMP280;61985;51.070;14.064;2022-08-18T15:36:41;98121.31;;;32.61
73685;BMP280;61985;51.070;14.064;2022-08-18T15:39:06;98118.03;;;32.31
73685;BMP280;61985;51.070;14.064;2022-08-18T15:41:34;98116.56;;;32.09
73685;BMP280;61985;51.070;14.064;2022-08-18T15:44:02;98116.84;;;31.91
73685;BMP280;61985;51.070;14.064;2022-08-18T15:46:30;98111.47;;;31.52
73685;BMP280;61985;51.070;14.064;2022-08-18T15:48:56;98109.22;;;31.29
73685;BMP280;61985;51.070;14.064;2022-08-18T15:51:21;98101.63;;;31.20
73685;BMP280;61985;51.070;14.064;2022-08-18T15:53:47;98098.00;;;31.08
73685;BMP280;61985;51.070;14.064;2022-08-18T15:56:14;98097.31;;;30.88
73685;BMP280;61985;51.070;14.064;2022-08-18T15:58:42;98095.25;;;30.98
73685;BMP280;61985;51.070;14.064;2022-08-18T16:01:11;98094.03;;;31.11
73685;BMP280;61985;51.070;14.064;2022-08-18T16:03:37;98082.00;;;31.08
73685;BMP280;61985;51.070;14.064;2022-08-18T16:06:03;98078.63;;;31.20
73685;BMP280;61985;51.070;14.064;2022-08-18T16:08:28;98085.53;;;31.19
73685;BMP280;61985;51.070;14.064;2022-08-18T16:10:55;98080.75;;;31.00
73685;BMP280;61985;51.070;14.064;2022-08-18T16:13:21;98072.72;;;30.75
73685;BMP280;61985;51.070;14.064;2022-08-18T16:15:47;98069.50;;;30.69
73685;BMP280;61985;51.070;14.064;2022-08-18T16:18:16;98061.63;;;30.65
73685;BMP280;61985;51.070;14.064;2022-08-18T16:20:43;98066.75;;;30.40
73685;BMP280;61985;51.070;14.064;2022-08-18T16:23:09;98059.59;;;30.27
73685;BMP280;61985;51.070;14.064;2022-08-18T16:25:37;98066.00;;;30.20
73685;BMP280;61985;51.070;14.064;2022-08-18T16:28:03;98061.31;;;30.22
73685;BMP280;61985;51.070;14.064;2022-08-18T16:30:28;98071.41;;;30.18
73685;BMP280;61985;51.070;14.064;2022-08-18T16:32:54;98064.97;;;30.05
73685;BMP280;61985;51.070;14.064;2022-08-18T16:35:20;98069.66;;;30.03
73685;BMP280;61985;51.070;14.064;2022-08-18T16:37:47;98060.09;;;29.77
73685;BMP280;61985;51.070;14.064;2022-08-18T16:40:14;98053.97;;;29.88
73685;BMP280;61985;51.070;14.064;2022-08-18T16:42:39;98061.72;;;29.80
73685;BMP280;61985;51.070;14.064;2022-08-18T16:45:06;98056.88;;;29.71
73685;BMP280;61985;51.070;14.064;2022-08-18T16:47:33;98050.75;;;29.72
73685;BMP280;61985;51.070;14.064;2022-08-18T16:50:06;98049.72;;;29.77
73685;BMP280;61985;51.070;14.064;2022-08-18T16:52:32;98048.22;;;29.66
73685;BMP280;61985;51.070;14.064;2022-08-18T16:54:59;98068.38;;;29.57
73685;BMP280;61985;51.070;14.064;2022-08-18T16:57:25;98055.94;;;29.58
73685;BMP280;61985;51.070;14.064;2022-08-18T17:00:09;98046.88;;;29.58
73685;BMP280;61985;51.070;14.064;2022-08-18T17:02:53;98059.69;;;29.43
73685;BMP280;61985;51.070;14.064;2022-08-18T17:05:37;98048.38;;;29.32
73685;BMP280;61985;51.070;14.064;2022-08-18T17:08:02;98044.31;;;29.33
73685;BMP280;61985;51.070;14.064;2022-08-18T17:10:30;98040.94;;;29.25
73685;BMP280;61985;51.070;14.064;2022-08-18T17:12:56;98036.47;;;29.12
73685;BMP280;61985;51.070;14.064;2022-08-18T17:15:21;98029.00;;;29.05
73685;BMP280;61985;51.070;14.064;2022-08-18T17:17:46;98025.19;;;29.00
73685;BMP280;61985;51.070;14.064;2022-08-18T17:20:12;98016.53;;;28.96
73685;BMP280;61985;51.070;14.064;2022-08-18T17:22:37;98018.03;;;28.80
73685;BMP280;61985;51.070;14.064;2022-08-18T17:25:03;98003.69;;;28.73
73685;BMP280;61985;51.070;14.064;2022-08-18T17:27:32;98021.78;;;28.74
73685;BMP280;61985;51.070;14.064;2022-08-18T17:30:11;98027.03;;;28.70
73685;BMP280;61985;51.070;14.064;2022-08-18T17:32:44;98024.38;;;28.63
73685;BMP280;61985;51.070;14.064;2022-08-18T17:35:24;98025.09;;;28.63
73685;BMP280;61985;51.070;14.064;2022-08-18T17:37:56;98030.16;;;28.57
73685;BMP280;61985;51.070;14.064;2022-08-18T17:40:32;98039.69;;;28.46
73685;BMP280;61985;51.070;14.064;2022-08-18T17:42:59;98037.56;;;28.37
73685;BMP280;61985;51.070;14.064;2022-08-18T17:45:27;98044.66;;;28.31
73685;BMP280;61985;51.070;14.064;2022-08-18T17:48:36;98041.13;;;28.13
73685;BMP280;61985;51.070;14.064;2022-08-18T17:51:10;98047.88;;;28.02
73685;BMP280;61985;51.070;14.064;2022-08-18T17:53:56;98038.78;;;27.84
73685;BMP280;61985;51.070;14.064;2022-08-18T17:56:28;98044.41;;;27.76
73685;BMP280;61985;51.070;14.064;2022-08-18T17:58:59;98048.47;;;27.75
73685;BMP280;61985;51.070;14.064;2022-08-18T18:01:28;98048.22;;;27.56
73685;BMP280;61985;51.070;14.064;2022-08-18T18:03:55;98048.28;;;27.48
73685;BMP280;61985;51.070;14.064;2022-08-18T18:11:33;98049.84;;;27.34
73685;BMP280;61985;51.070;14.064;2022-08-18T18:14:32;98053.34;;;27.34
73685;BMP280;61985;51.070;14.064;2022-08-18T18:17:37;98057.06;;;27.29
73685;BMP280;61985;51.070;14.064;2022-08-18T18:20:34;98048.34;;;27.08
73685;BMP280;61985;51.070;14.064;2022-08-18T18:23:20;98044.53;;;26.96
73685;BMP280;61985;51.070;14.064;2022-08-18T18:25:46;98040.88;;;26.85
73685;BMP280;61985;51.070;14.064;2022-08-18T18:28:28;98039.03;;;26.80
73685;BMP280;61985;51.070;14.064;2022-08-18T18:30:56;98045.34;;;26.65
73685;BMP280;61985;51.070;14.064;2022-08-18T18:33:25;98036.19;;;26.63
73685;BMP280;61985;51.070;14.064;2022-08-18T18:35:54;98028.25;;;26.44
73685;BMP280;61985;51.070;14.064;2022-08-18T18:38:33;98038.84;;;26.23
73685;BMP280;61985;51.070;14.064;2022-08-18T18:41:02;98034.06;;;26.00
73685;BMP280;61985;51.070;14.064;2022-08-18T18:43:37;98026.69;;;26.10
73685;BMP280;61985;51.070;14.064;2022-08-18T18:51:26;98018.91;;;25.40
73685;BMP280;61985;51.070;14.064;2022-08-18T18:54:11;98029.94;;;25.40
73685;BMP280;61985;51.070;14.064;2022-08-18T18:56:47;98019.59;;;25.17
73685;BMP280;61985;51.070;14.064;2022-08-18T19:02:38;98008.13;;;24.61
73685;BMP280;61985;51.070;14.064;2022-08-18T19:05:10;98009.47;;;24.76
73685;BMP280;61985;51.070;14.064;2022-08-18T19:10:24;98005.44;;;24.77
73685;BMP280;61985;51.070;14.064;2022-08-18T19:13:03;98008.38;;;24.71
73685;BMP280;61985;51.070;14.064;2022-08-18T19:15:32;98007.38;;;24.61
73685;BMP280;61985;51.070;14.064;2022-08-18T19:18:17;98005.00;;;24.57
73685;BMP280;61985;51.070;14.064;2022-08-18T19:20:49;98006.56;;;24.45
73685;BMP280;61985;51.070;14.064;2022-08-18T19:26:18;97993.28;;;24.36
73685;BMP280;61985;51.070;14.064;2022-08-18T19:28:51;97995.25;;;24.28
73685;BMP280;61985;51.070;14.064;2022-08-18T19:31:38;97995.88;;;24.13